首页
METAR-TAF:

METAR-TAF

机场 :

伊拉克利翁尼科斯·卡赞察基斯国际机场

伊拉克利翁, 希腊

纬度: 35-20N, 经度: 025-11E, 海拔: 37米

当前天气观测

该预报发布于31分钟前的20:50 UTC
风速14节,风向南转西南
温度 15°C
湿度 67%
气压 1007 hPa
能见度10公里或以上
少量云层高于2000英尺, 塔状积云.
散云层高于2500英尺

METAR: LGIR 112050Z 20014KT 9999 FEW020TCU SCT025 15/09 Q1007 NOSIG

时间: 23:21 (21:21 UTC)

预报

该预报发布于4小时和21分钟前的17:00 UTC
预报有效从11日的 18点(UTC)到 12日的 18点(UTC)
风速10节,风向
能见度10公里或以上
散云层高于2500英尺
多云层高于7000英尺
几率 30% :
短暂存在
从 11日的 18点(UTC)到 12日的 18点(UTC)
能見度: 5000
少量云层高于1800英尺, 塔状积云.
多云层高于2500英尺
多云层高于7000英尺
几率 30% :
短暂存在
从 11日的 18点(UTC)到 12日的 06点(UTC)
能見度: 4000
散云层高于1000英尺
少量云层高于1800英尺, 积雨云.
多云层高于2000英尺
阴天层高于8000英尺
雷暴, 雨
短暂存在
从 11日的 21点(UTC)到 12日的 09点(UTC)
风速12节,风向,有时为22节阵风

TAF: LGIR 111700Z 1118/1218 19010KT 9999 SCT025 BKN070 PROB30 TEMPO 1118/1218 5000 RA FEW018TCU BKN025 BKN070 PROB30 TEMPO 1118/1206 4000 TSRA SCT010 FEW018CB BKN020 OVC080 TEMPO 1121/1209 19012G22KT

超过4000个机场的气象观测和天气预报(METAR&TAF报告)。

可查询的气象台以黄色和红色小点在地图上表示。

将鼠标移到小点上方,可查看气象台名称。

然后点击查看天气观测和预报。

如需切换地图:点击带黑十字的绿色按钮放大地图;点击带横线的绿色按钮缩小地图;或者点击绿色箭头查看邻近地区的地图。


METAR-TAF: